J Strider — 2CMH7 — position and weather

sailwx.info

Track history (hours):
 
Tides and Currents Weather Stations Pressure Air Temp Water Temp Dewpoint Dewpoint Depression Visibility Wind Speed Wind Dir Waves Ship Positions

J Strider

Last reported at 2017-Sep-19 18:33 UTC. Time now 2017-Sep-22 02:40 UTC.
Position N 36°07' W 005°22'.

Length 14 m.

MMSI: 235074003.

Date/timePositionNaut miles runAvg speedWind from/ knotsBaromVisibWave heightAir tempDewpointWater temp
2017-Sep-19 18:33N 36°07' W 005°22'0 4.2
2017-Sep-19 18:30N 36°07' W 005°22'  
2017-Sep-12 23:32N 36°09' W 005°22'3 1.1
2017-Sep-12 21:09N 36°06' W 005°22'3 8.9
2017-Sep-12 20:51N 36°05' W 005°19'410.1
2017-Sep-12 20:30N 36°01' W 005°17'3 4.5
2017-Sep-12 19:48N 36°02' W 005°21'6 2.6
2017-Sep-12 17:19N 36°08' W 005°22'1 0.0
2017-Sep-11 19:32N 36°09' W 005°22'0 0.0
2017-Sep-11 19:30N 36°09' W 005°22'1 1.8
2017-Sep-11 18:59N 36°08' W 005°22'1 1.1
2017-Sep-11 18:11N 36°07' W 005°22'2 7.3
2017-Sep-11 17:58N 36°09' W 005°22'  
Track history (hours):
 
Tides and Currents Weather Stations Pressure Air Temp Water Temp Dewpoint Dewpoint Depression Visibility Wind Speed Wind Dir Waves Ship Positions

J Strider

Last reported at 2017-Sep-19 18:33 UTC. Time now 2017-Sep-22 02:40 UTC.
Position N 36°07' W 005°22'.

Length 14 m.

MMSI: 235074003.

Date/timePositionNaut miles runAvg speedWind from/ knotsBaromVisibWave heightAir tempDewpointWater temp
2017-Sep-19 18:33N 36°07' W 005°22'0 4.2
2017-Sep-19 18:30N 36°07' W 005°22'  
2017-Sep-12 23:32N 36°09' W 005°22'3 1.1
2017-Sep-12 21:09N 36°06' W 005°22'3 8.9
2017-Sep-12 20:51N 36°05' W 005°19'410.1
2017-Sep-12 20:30N 36°01' W 005°17'3 4.5
2017-Sep-12 19:48N 36°02' W 005°21'6 2.6
2017-Sep-12 17:19N 36°08' W 005°22'1 0.0
2017-Sep-11 19:32N 36°09' W 005°22'0 0.0
2017-Sep-11 19:30N 36°09' W 005°22'1 1.8
2017-Sep-11 18:59N 36°08' W 005°22'1 1.1
2017-Sep-11 18:11N 36°07' W 005°22'2 7.3
2017-Sep-11 17:58N 36°09' W 005°22'  

Dump ship's entire track history